Time;durP1;ratioP1;P1;durP2;ratioP2;P2;SDS_P1;SDS_P2;PMS_P1;PMS_P2;Temp;Humidity;BMP_temperature;BMP_pressure;BME280_temperature;BME280_humidity;BME280_pressure;Samples;Min_cycle;Max_cycle;Signal;HPM_P1;HPM_P2
2022/08/13 00:01:36;;;;;;;;;;;22.40;57.10;;;;;;4993799;28;20041;-72
2022/08/13 00:04:05;;;;;;;2.83;1.10;;;22.40;57.40;;;;;;4993064;28;19906;-72
2022/08/13 00:09:09;;;;;;;3.33;1.00;;;22.30;57.60;;;;;;4996547;28;20081;-72
2022/08/13 00:14:24;;;;;;;2.95;1.40;;;22.20;57.90;;;;;;4996539;28;20089;-72
2022/08/13 00:16:54;;;;;;;1.35;1.20;;;22.20;57.90;;;;;;4996525;28;20044;-72
2022/08/13 00:19:20;;;;;;;2.90;1.33;;;22.20;58.30;;;;;;4995602;28;20050;-71
2022/08/13 00:21:47;;;;;;;2.15;1.17;;;22.10;58.40;;;;;;4996606;28;20026;-71
2022/08/13 00:24:14;;;;;;;3.42;1.15;;;22.10;58.50;;;;;;4996055;28;20037;-72
2022/08/13 00:26:39;;;;;;;1.02;0.93;;;22.10;58.50;;;;;;4996703;28;20026;-72
2022/08/13 00:29:05;;;;;;;1.40;1.27;;;22.10;58.80;;;;;;4996152;28;20093;-72
2022/08/13 00:31:32;;;;;;;1.65;1.33;;;22.00;59.50;;;;;;4996590;28;20101;-72
2022/08/13 00:33:59;;;;;;;1.58;1.23;;;22.00;59.20;;;;;;4996737;28;20062;-72
2022/08/13 00:36:26;;;;;;;2.00;1.08;;;21.90;59.30;;;;;;4996135;28;20096;-72
2022/08/13 00:38:53;;;;;;;1.20;1.02;;;21.90;59.40;;;;;;4998516;28;20371;-72
2022/08/13 00:41:37;;;;;;;1.27;0.90;;;21.90;59.70;;;;;;4995465;28;20387;-71
2022/08/13 00:44:05;;;;;;;1.63;1.10;;;21.90;60.00;;;;;;4996253;28;20030;-71
2022/08/13 00:46:32;;;;;;;2.15;1.27;;;21.80;60.20;;;;;;4996545;28;20038;-71
2022/08/13 00:48:57;;;;;;;3.47;1.13;;;21.80;60.60;;;;;;4996445;28;20030;-71
2022/08/13 00:51:26;;;;;;;2.92;1.23;;;21.70;61.10;;;;;;4995630;28;20080;-72
2022/08/13 00:53:54;;;;;;;0.93;0.90;;;21.60;61.10;;;;;;4995889;28;20516;-72
2022/08/13 00:56:22;;;;;;;1.27;1.15;;;21.60;61.50;;;;;;4995817;28;20031;-72
2022/08/13 00:58:49;;;;;;;1.40;1.30;;;21.50;61.50;;;;;;4996210;28;20025;-71
2022/08/13 01:01:15;;;;;;;1.48;1.17;;;21.50;62.30;;;;;;4995688;28;20026;-71
2022/08/13 01:03:42;;;;;;;1.65;1.20;;;21.40;62.20;;;;;;4995918;28;20027;-71
2022/08/13 01:06:09;;;;;;;1.85;1.20;;;21.40;62.30;;;;;;4995727;28;20084;-71
2022/08/13 01:08:40;;;;;;;1.65;0.95;;;21.30;62.50;;;;;;4996024;28;20106;-71
2022/08/13 01:11:11;;;;;;;1.92;1.38;;;21.30;63.00;;;;;;4995736;28;20033;-71
2022/08/13 01:13:40;;;;;;;1.75;1.20;;;21.30;62.70;;;;;;4996302;28;20030;-71
2022/08/13 01:16:13;;;;;;;1.63;1.13;;;21.30;63.20;;;;;;4978432;28;20031;-71
2022/08/13 01:18:42;;;;;;;1.45;1.00;;;21.20;63.20;;;;;;4994631;28;20438;-71
2022/08/13 01:21:25;;;;;;;2.03;1.30;;;21.20;63.30;;;;;;4995278;28;20450;-74
2022/08/13 01:23:53;;;;;;;3.75;1.45;;;21.20;63.40;;;;;;4996203;28;20117;-70
2022/08/13 01:26:20;;;;;;;1.73;1.20;;;21.20;63.70;;;;;;4994967;28;20487;-70
2022/08/13 01:28:48;;;;;;;1.98;1.30;;;21.20;63.90;;;;;;4995847;28;20030;-71
2022/08/13 01:31:15;;;;;;;1.60;1.17;;;21.10;63.90;;;;;;4994995;28;20034;-71
2022/08/13 01:33:43;;;;;;;1.80;1.30;;;21.10;64.00;;;;;;4995301;28;20033;-72
2022/08/13 01:36:10;;;;;;;5.05;1.50;;;21.10;64.00;;;;;;4994387;28;20029;-74
2022/08/13 01:38:37;;;;;;;1.45;1.25;;;21.10;64.10;;;;;;4995158;28;20030;-72
2022/08/13 01:41:05;;;;;;;1.48;1.38;;;21.00;64.30;;;;;;4997927;28;20038;-71
2022/08/13 01:43:31;;;;;;;2.40;1.25;;;21.00;64.70;;;;;;4994734;28;20030;-71
2022/08/13 01:46:01;;;;;;;1.38;1.25;;;21.10;64.60;;;;;;4995543;28;20034;-70
2022/08/13 01:51:21;;;;;;;2.58;1.58;;;21.10;64.60;;;;;;5008569;28;20045;-71
2022/08/13 01:53:51;;;;;;;1.52;1.33;;;21.10;64.80;;;;;;5014793;28;20057;-71
2022/08/13 01:56:21;;;;;;;3.65;1.25;;;21.10;64.60;;;;;;5014268;28;20095;-71
2022/08/13 01:59:05;;;;;;;1.70;1.30;;;21.10;64.50;;;;;;5014957;28;20026;-71
2022/08/13 02:01:32;;;;;;;4.32;1.52;;;21.00;64.60;;;;;;5014063;28;20033;-71
2022/08/13 02:03:58;;;;;;;1.98;1.27;;;21.10;64.70;;;;;;5014141;28;20372;-71
2022/08/13 02:06:29;;;;;;;3.95;1.30;;;21.00;64.80;;;;;;5014123;28;20030;-71
2022/08/13 02:08:58;;;;;;;1.85;1.30;;;21.00;65.00;;;;;;5014669;28;20026;-70
2022/08/13 02:11:25;;;;;;;1.35;1.25;;;21.00;65.10;;;;;;5013721;28;20041;-71
2022/08/13 02:13:55;;;;;;;2.30;1.52;;;21.00;65.20;;;;;;5014457;28;20088;-71
2022/08/13 02:16:22;;;;;;;1.52;1.30;;;20.90;65.30;;;;;;5013737;28;20044;-72
2022/08/13 02:18:53;;;;;;;1.58;1.23;;;20.90;65.50;;;;;;5014055;28;20078;-71
2022/08/13 02:21:22;;;;;;;4.15;1.60;;;20.90;65.50;;;;;;5013336;28;20026;-72
2022/08/13 02:23:56;;;;;;;2.00;1.35;;;20.80;65.80;;;;;;5012490;28;20449;-72
2022/08/13 02:26:23;;;;;;;2.15;1.50;;;20.80;66.10;;;;;;4994251;28;20040;-72
2022/08/13 02:28:51;;;;;;;1.55;1.45;;;20.80;66.50;;;;;;4994093;28;20030;-72
2022/08/13 02:31:18;;;;;;;2.50;1.52;;;20.70;66.80;;;;;;4993916;28;20038;-72
2022/08/13 02:33:44;;;;;;;2.88;1.90;;;20.70;66.50;;;;;;4994391;28;20356;-71
2022/08/13 02:36:10;;;;;;;1.75;1.50;;;20.60;67.00;;;;;;4996389;28;20037;-71
2022/08/13 02:38:42;;;;;;;1.40;1.30;;;20.60;67.40;;;;;;4993594;28;20407;-71
2022/08/13 02:43:52;;;;;;;1.58;1.48;;;20.50;67.60;;;;;;4994238;28;20038;-71
2022/08/13 02:46:21;;;;;;;3.65;1.50;;;20.50;67.90;;;;;;4993745;28;20030;-71
2022/08/13 02:48:48;;;;;;;1.50;1.40;;;20.50;67.70;;;;;;4993928;28;20026;-72
2022/08/13 02:51:14;;;;;;;1.60;1.40;;;20.50;67.70;;;;;;4993285;28;20037;-75
2022/08/13 02:53:41;;;;;;;2.00;1.60;;;20.50;68.10;;;;;;4993730;28;20026;-70
2022/08/13 02:56:08;;;;;;;2.15;1.50;;;20.50;68.10;;;;;;4993923;28;20027;-71
2022/08/13 02:58:35;;;;;;;1.75;1.33;;;20.50;68.00;;;;;;4993465;28;20040;-72
2022/08/13 03:01:02;;;;;;;1.73;1.63;;;20.50;68.10;;;;;;4993355;28;20378;-72
2022/08/13 03:03:31;;;;;;;2.03;1.70;;;20.40;68.10;;;;;;4993224;28;20022;-72
2022/08/13 03:05:57;;;;;;;3.60;1.75;;;20.40;68.30;;;;;;4993518;28;20030;-72
2022/08/13 03:08:23;;;;;;;2.70;1.50;;;20.40;68.50;;;;;;4993132;28;20368;-72
2022/08/13 03:10:50;;;;;;;4.07;1.60;;;20.30;68.80;;;;;;4993424;28;20026;-71
2022/08/13 03:13:20;;;;;;;3.20;1.40;;;20.30;68.90;;;;;;4992995;28;20034;-71
2022/08/13 03:15:49;;;;;;;1.95;1.40;;;20.20;69.20;;;;;;4993101;28;20027;-71
2022/08/13 03:18:15;;;;;;;5.65;1.73;;;20.20;69.40;;;;;;4992833;28;20036;-71
2022/08/13 03:20:41;;;;;;;1.30;1.20;;;20.20;69.50;;;;;;4992992;28;20036;-69
2022/08/13 03:23:08;;;;;;;2.65;1.77;;;20.10;69.70;;;;;;4993226;28;20113;-72
2022/08/13 03:25:34;;;;;;;2.22;1.58;;;20.10;70.00;;;;;;4993342;28;20031;-71
2022/08/13 03:28:01;;;;;;;2.92;1.85;;;20.10;70.10;;;;;;4993329;28;20482;-70
2022/08/13 03:30:27;;;;;;;1.98;1.50;;;20.00;70.70;;;;;;4992882;28;20033;-72
2022/08/13 03:32:55;;;;;;;2.35;1.25;;;20.00;70.70;;;;;;4992973;28;20359;-72
2022/08/13 03:35:23;;;;;;;1.63;1.52;;;20.00;70.80;;;;;;4995329;28;20034;-70
2022/08/13 03:37:54;;;;;;;1.77;1.40;;;19.90;71.00;;;;;;4993256;28;20030;-72
2022/08/13 03:40:22;;;;;;;1.95;1.75;;;19.90;71.30;;;;;;4992389;28;20119;-72
2022/08/13 03:42:49;;;;;;;1.77;1.52;;;19.80;71.60;;;;;;4992734;28;20085;-71
2022/08/13 03:45:15;;;;;;;1.60;1.45;;;19.80;71.60;;;;;;4992678;28;20030;-74
2022/08/13 03:47:42;;;;;;;2.28;1.80;;;19.90;71.60;;;;;;4993616;28;20041;-70
2022/08/13 03:50:10;;;;;;;1.75;1.55;;;19.90;71.50;;;;;;4993045;28;20456;-70
2022/08/13 03:52:37;;;;;;;2.08;1.55;;;19.90;71.60;;;;;;4992575;28;20026;-72
2022/08/13 03:55:09;;;;;;;2.63;1.50;;;19.80;71.60;;;;;;4993173;28;20085;-72
2022/08/13 03:57:40;;;;;;;1.92;1.70;;;19.80;71.60;;;;;;4992770;28;20397;-72
2022/08/13 04:00:12;;;;;;;;;;;19.80;71.70;;;;;;4993476;28;20030;-72
2022/08/13 04:02:42;;;;;;;1.70;1.35;;;19.80;71.70;;;;;;4992713;28;19959;-72
2022/08/13 04:05:17;;;;;;;1.63;1.45;;;19.80;71.70;;;;;;4993021;28;20077;-71
2022/08/13 04:07:45;;;;;;;2.00;1.33;;;19.80;71.70;;;;;;4992792;28;20525;-71
2022/08/13 04:10:12;;;;;;;2.20;1.63;;;19.90;71.90;;;;;;4993039;28;20033;-71
2022/08/13 04:12:39;;;;;;;2.10;1.45;;;19.80;71.70;;;;;;4993309;28;20031;-71
2022/08/13 04:15:09;;;;;;;1.65;1.48;;;19.80;71.90;;;;;;4993110;28;20031;-71
2022/08/13 04:17:36;;;;;;;1.65;1.55;;;19.80;72.00;;;;;;4992494;28;20459;-71
2022/08/13 04:20:03;;;;;;;2.90;1.48;;;19.80;71.90;;;;;;4992854;28;20077;-72
2022/08/13 04:22:29;;;;;;;4.72;1.92;;;19.90;72.20;;;;;;4975188;28;20030;-72
2022/08/13 04:24:55;;;;;;;2.22;1.60;;;19.90;72.00;;;;;;4993779;28;20072;-71
2022/08/13 04:27:21;;;;;;;2.28;1.73;;;19.90;71.90;;;;;;4995049;28;20053;-73
2022/08/13 04:29:46;;;;;;;2.53;1.75;;;20.00;71.80;;;;;;4993041;28;20026;-71
2022/08/13 04:32:12;;;;;;;2.15;1.65;;;20.00;71.90;;;;;;4992499;28;20030;-71
2022/08/13 04:34:37;;;;;;;2.45;1.88;;;20.00;71.70;;;;;;4992697;28;20034;-71
2022/08/13 04:37:04;;;;;;;4.15;2.03;;;20.00;71.90;;;;;;5000551;28;20041;-71
2022/08/13 04:39:29;;;;;;;1.92;1.50;;;20.10;71.60;;;;;;5003228;28;20105;-71
2022/08/13 04:41:55;;;;;;;2.70;1.73;;;20.20;71.20;;;;;;5003939;28;20105;-70
2022/08/13 04:44:21;;;;;;;2.67;1.60;;;20.30;70.90;;;;;;5000193;28;20026;-70
2022/08/13 04:46:46;;;;;;;2.58;1.60;;;20.40;70.60;;;;;;5003261;28;20022;-71
2022/08/13 04:49:12;;;;;;;2.22;1.60;;;20.40;69.90;;;;;;5001799;28;20036;-71
2022/08/13 04:51:39;;;;;;;2.30;1.50;;;20.40;70.00;;;;;;5001717;28;20526;-72
2022/08/13 04:54:05;;;;;;;2.08;1.65;;;20.50;69.60;;;;;;5012385;28;20033;-70
2022/08/13 04:56:30;;;;;;;3.13;1.95;;;20.60;69.50;;;;;;5015262;28;20544;-72
2022/08/13 04:58:57;;;;;;;2.22;1.58;;;20.60;69.40;;;;;;5015924;28;20022;-72
2022/08/13 05:01:23;;;;;;;2.50;1.77;;;20.70;69.10;;;;;;5015505;28;20036;-75
2022/08/13 05:03:48;;;;;;;2.42;1.52;;;20.80;68.90;;;;;;5016029;28;20451;-72
2022/08/13 05:06:21;;;;;;;2.03;1.45;;;20.80;69.40;;;;;;5015905;28;20367;-72
2022/08/13 05:08:49;;;;;;;2.20;1.67;;;20.80;68.90;;;;;;5015845;28;20025;-72
2022/08/13 05:11:17;;;;;;;2.67;1.58;;;20.80;68.70;;;;;;5015746;28;20112;-72
2022/08/13 05:13:43;;;;;;;6.63;1.85;;;20.90;68.80;;;;;;5015469;28;20034;-73
2022/08/13 05:16:12;;;;;;;2.22;1.65;;;20.90;69.00;;;;;;5010769;28;20468;-72
2022/08/13 05:18:45;;;;;;;2.13;1.60;;;20.90;68.90;;;;;;5006245;28;20058;-72
2022/08/13 05:21:12;;;;;;;2.92;1.88;;;20.90;68.60;;;;;;5002827;28;20154;-71
2022/08/13 05:23:39;;;;;;;2.00;1.80;;;21.10;68.30;;;;;;5007129;28;20037;-70
2022/08/13 05:26:06;;;;;;;2.30;1.85;;;21.20;68.30;;;;;;4998338;28;20411;-70
2022/08/13 05:28:33;;;;;;;2.15;1.52;;;21.20;68.40;;;;;;4995241;28;20109;-71
2022/08/13 05:30:59;;;;;;;3.13;1.90;;;21.30;68.20;;;;;;4995743;28;20033;-71
2022/08/13 05:33:27;;;;;;;2.97;1.85;;;21.40;68.20;;;;;;4996672;28;20057;-71
2022/08/13 05:35:58;;;;;;;2.67;1.80;;;21.50;68.10;;;;;;4995389;28;20557;-71
2022/08/13 05:38:25;;;;;;;;;;;21.70;67.50;;;;;;4995440;28;20353;-71
2022/08/13 05:40:52;;;;;;;2.50;2.20;;;22.00;66.10;;;;;;4995718;28;19910;-70
2022/08/13 05:43:20;;;;;;;2.53;2.03;;;22.30;64.80;;;;;;4995186;28;20481;-72
2022/08/13 05:45:57;;;;;;;2.78;2.13;;;22.60;64.00;;;;;;4994967;28;20130;-71
2022/08/13 05:48:27;;;;;;;2.65;2.20;;;22.90;62.70;;;;;;4995839;28;20042;-71
2022/08/13 05:50:54;;;;;;;2.58;2.08;;;23.00;62.00;;;;;;5005809;28;20105;-70
2022/08/13 05:53:22;;;;;;;2.25;2.03;;;23.10;61.20;;;;;;5014762;28;20133;-70
2022/08/13 05:55:49;;;;;;;3.17;2.28;;;23.20;60.90;;;;;;5014214;28;20088;-71
2022/08/13 05:58:14;;;;;;;2.22;2.00;;;23.20;60.10;;;;;;5014344;28;20037;-69
2022/08/13 06:03:29;;;;;;;2.47;2.10;;;23.50;59.90;;;;;;5014283;28;20040;-74
2022/08/13 06:05:56;;;;;;;1.80;1.65;;;23.60;59.50;;;;;;5014313;28;20499;-75
2022/08/13 06:08:31;;;;;;;3.03;2.72;;;23.60;59.40;;;;;;5014571;28;20536;-73
2022/08/13 06:10:59;;;;;;;4.43;2.15;;;23.50;59.70;;;;;;5014954;28;20089;-75
2022/08/13 06:13:26;;;;;;;2.55;2.25;;;23.50;59.90;;;;;;5014801;28;20414;-74
2022/08/13 06:16:00;;;;;;;3.15;2.60;;;23.50;59.70;;;;;;5014196;28;20026;-75
2022/08/13 06:18:29;;;;;;;5.07;2.80;;;23.60;59.50;;;;;;5014030;28;20120;-75
2022/08/13 06:20:56;;;;;;;4.13;2.80;;;23.50;59.70;;;;;;5014125;28;20061;-76
2022/08/13 06:23:24;;;;;;;3.10;2.20;;;23.50;60.00;;;;;;5014345;28;20026;-76
2022/08/13 06:25:51;;;;;;;4.53;2.50;;;23.60;60.10;;;;;;5013816;28;20025;-74
2022/08/13 06:28:26;;;;;;;2.60;2.22;;;23.70;60.00;;;;;;5014958;28;20088;-75
2022/08/13 06:31:03;;;;;;;2.85;2.15;;;23.90;59.20;;;;;;5013748;28;20026;-75
2022/08/13 06:33:30;;;;;;;3.53;2.25;;;24.20;58.50;;;;;;5013559;28;20459;-76
2022/08/13 06:36:04;;;;;;;4.03;2.97;;;24.50;58.30;;;;;;4996424;28;20488;-76
2022/08/13 06:38:36;;;;;;;3.08;2.78;;;24.70;57.20;;;;;;5013790;28;20026;-76
2022/08/13 06:41:04;;;;;;;4.35;2.67;;;25.00;56.80;;;;;;5013793;28;20458;-76
2022/08/13 06:43:32;;;;;;;2.58;2.22;;;25.40;56.50;;;;;;5013310;28;20379;-78
2022/08/13 06:45:59;;;;;;;3.00;2.55;;;25.80;55.20;;;;;;5013784;28;20022;-75
2022/08/13 06:48:26;;;;;;;4.07;2.72;;;26.00;54.50;;;;;;5010750;28;20022;-75
2022/08/13 06:50:53;;;;;;;2.60;2.35;;;26.20;53.90;;;;;;4993613;28;20053;-75
2022/08/13 06:53:19;;;;;;;2.95;2.60;;;26.30;53.30;;;;;;4994056;28;20022;-75
2022/08/13 06:55:48;;;;;;;2.67;2.33;;;26.30;53.00;;;;;;4993363;28;20089;-76
2022/08/13 06:58:15;;;;;;;3.33;2.55;;;26.50;52.90;;;;;;4993808;28;20034;-76
2022/08/13 07:00:42;;;;;;;3.40;2.67;;;26.50;53.10;;;;;;4993346;28;20037;-76
2022/08/13 07:03:10;;;;;;;3.45;2.60;;;26.60;53.10;;;;;;4976589;28;20031;-74
2022/08/13 07:05:41;;;;;;;2.90;2.55;;;26.60;53.30;;;;;;4992939;28;20033;-75
2022/08/13 07:08:09;;;;;;;4.22;2.67;;;26.40;53.40;;;;;;4993961;28;20046;-75
2022/08/13 07:10:39;;;;;;;3.90;3.33;;;26.40;53.60;;;;;;4993243;28;20034;-76
2022/08/13 07:13:07;;;;;;;3.45;2.60;;;26.30;53.70;;;;;;4993696;28;20455;-76
2022/08/13 07:15:33;;;;;;;4.38;3.10;;;26.20;53.60;;;;;;4993260;28;20049;-76
2022/08/13 07:17:59;;;;;;;2.85;2.50;;;26.00;54.10;;;;;;4993556;28;20034;-75
2022/08/13 07:20:25;;;;;;;4.10;2.72;;;25.90;54.60;;;;;;4993814;28;20054;-74
2022/08/13 07:22:53;;;;;;;3.38;2.90;;;25.80;55.30;;;;;;4992926;28;20534;-75
2022/08/13 07:25:24;;;;;;;3.70;3.05;;;25.70;55.60;;;;;;5006397;28;20037;-75
2022/08/13 07:27:51;;;;;;;3.20;2.80;;;25.70;56.10;;;;;;5012735;28;20037;-75
2022/08/13 07:30:19;;;;;;;3.10;2.33;;;25.80;55.70;;;;;;5012825;28;20022;-74
2022/08/13 07:32:45;;;;;;;3.22;2.70;;;26.00;55.80;;;;;;5012700;28;20125;-74
2022/08/13 07:35:11;;;;;;;4.05;2.95;;;26.30;55.50;;;;;;5012762;28;20061;-74
2022/08/13 07:37:39;;;;;;;3.72;3.20;;;26.30;55.10;;;;;;5012256;28;20099;-75
2022/08/13 07:40:08;;;;;;;3.53;2.88;;;26.20;54.90;;;;;;5009316;28;20076;-75
2022/08/13 07:42:39;;;;;;;4.28;3.22;;;26.10;55.10;;;;;;5012163;28;20037;-76
2022/08/13 07:45:06;;;;;;;4.18;3.05;;;26.10;55.70;;;;;;5013588;28;20026;-74
2022/08/13 07:47:33;;;;;;;4.07;3.10;;;26.30;56.10;;;;;;4979284;28;20033;-78
2022/08/13 07:50:01;;;;;;;3.50;3.15;;;26.40;54.70;;;;;;5012559;28;20072;-75
2022/08/13 07:52:30;;;;;;;3.95;3.08;;;26.50;54.30;;;;;;4995801;28;20022;-74
2022/08/13 07:54:58;;;;;;;3.33;3.03;;;26.30;54.90;;;;;;5012132;28;20044;-74
2022/08/13 07:57:28;;;;;;;3.38;2.88;;;26.50;55.10;;;;;;4978986;28;20056;-74
2022/08/13 07:59:55;;;;;;;3.03;2.72;;;26.30;55.00;;;;;;5012118;28;20116;-75
2022/08/13 08:02:25;;;;;;;3.50;3.20;;;26.70;55.30;;;;;;5012151;28;20509;-75
2022/08/13 08:04:53;;;;;;;2.93;2.50;;;27.20;54.00;;;;;;5012017;28;20029;-74
2022/08/13 08:07:19;;;;;;;3.13;2.83;;;27.40;53.00;;;;;;5011970;28;20034;-75
2022/08/13 08:09:45;;;;;;;2.92;2.67;;;27.30;52.70;;;;;;5011748;28;20033;-75
2022/08/13 08:14:55;;;;;;;2.95;2.72;;;27.90;52.40;;;;;;5011866;28;20153;-75
2022/08/13 08:17:26;;;;;;;3.92;3.05;;;28.70;50.50;;;;;;5012197;28;20030;-75
2022/08/13 08:19:53;;;;;;;3.45;2.90;;;29.70;49.30;;;;;;5011669;28;20652;-76
2022/08/13 08:22:20;;;;;;;3.42;2.65;;;30.90;47.50;;;;;;5012528;28;20081;-74
2022/08/13 08:24:49;;;;;;;3.13;2.55;;;31.80;46.10;;;;;;5003024;28;20263;-76
2022/08/13 08:27:19;;;;;;;4.05;2.60;;;32.50;43.30;;;;;;4992622;28;20033;-75
2022/08/13 08:29:46;;;;;;;7.07;2.95;;;32.80;42.80;;;;;;4995699;28;20026;-75
2022/08/13 08:32:13;;;;;;;4.35;2.60;;;33.50;42.50;;;;;;4996279;28;20026;-75
2022/08/13 08:34:44;;;;;;;3.30;2.97;;;34.20;41.40;;;;;;4995808;28;20114;-74
2022/08/13 08:42:35;;;;;;;3.95;2.58;;;33.90;40.20;;;;;;4996138;28;20405;-74
2022/08/13 08:42:49;;;;;;;2.78;2.47;;;33.60;40.40;;;;;;4995628;28;20048;-75
2022/08/13 08:45:18;;;;;;;2.85;2.63;;;33.00;41.30;;;;;;4996193;28;20033;-74
2022/08/13 08:47:44;;;;;;;4.03;2.90;;;33.10;42.10;;;;;;4995221;28;20030;-75
2022/08/13 08:50:11;;;;;;;3.47;3.10;;;33.00;41.70;;;;;;4995734;28;20460;-75
2022/08/13 08:55:24;;;;;;;3.22;2.92;;;32.50;42.80;;;;;;4995768;28;20065;-74
2022/08/13 08:57:52;;;;;;;4.05;3.10;;;32.40;43.10;;;;;;4995307;28;20094;-74
2022/08/13 09:00:20;;;;;;;5.50;2.85;;;32.40;43.20;;;;;;4996078;28;20037;-75
2022/08/13 09:02:49;;;;;;;4.53;2.72;;;32.40;43.50;;;;;;4977792;28;20395;-75
2022/08/13 09:05:17;;;;;;;3.58;2.72;;;32.30;43.30;;;;;;4995859;28;20030;-75
2022/08/13 09:07:47;;;;;;;3.35;2.60;;;32.20;43.70;;;;;;4995337;28;20527;-75
2022/08/13 09:10:14;;;;;;;5.43;3.17;;;32.20;43.80;;;;;;4995845;28;20027;-75
2022/08/13 09:12:44;;;;;;;3.45;2.78;;;31.80;43.80;;;;;;4995247;28;20029;-76
2022/08/13 09:15:11;;;;;;;3.78;3.05;;;31.40;44.70;;;;;;4995776;28;20038;-75
2022/08/13 09:17:39;;;;;;;4.07;3.40;;;31.00;45.60;;;;;;4995240;28;20118;-75
2022/08/13 09:20:07;;;;;;;3.42;3.00;;;30.70;46.20;;;;;;4995346;28;20100;-75
2022/08/13 09:22:33;;;;;;;5.35;3.17;;;30.50;47.10;;;;;;4995607;28;20035;-77
2022/08/13 09:24:59;;;;;;;3.80;3.28;;;30.20;47.00;;;;;;4995287;28;20029;-75
2022/08/13 09:27:27;;;;;;;3.22;2.90;;;30.00;47.50;;;;;;4995767;28;20105;-74
2022/08/13 09:29:54;;;;;;;4.10;3.20;;;29.80;48.00;;;;;;4995157;28;20019;-75
2022/08/13 09:32:21;;;;;;;3.45;3.03;;;29.50;48.50;;;;;;4995039;28;20387;-75
2022/08/13 09:34:47;;;;;;;4.22;3.38;;;29.40;48.60;;;;;;4994563;28;20427;-75
2022/08/13 09:37:13;;;;;;;3.35;3.03;;;29.40;49.20;;;;;;4995236;28;20038;-75
2022/08/13 09:39:38;;;;;;;3.88;3.08;;;29.30;50.10;;;;;;4993635;28;20034;-76
2022/08/13 09:42:10;;;;;;;4.97;4.07;;;29.40;49.60;;;;;;4997474;28;20029;-75
2022/08/13 09:44:41;;;;;;;3.33;2.90;;;29.40;49.80;;;;;;4994821;28;20109;-78
2022/08/13 09:47:09;;;;;;;5.22;3.70;;;29.40;49.50;;;;;;4995129;28;20036;-75
2022/08/13 09:49:35;;;;;;;3.80;3.17;;;29.50;49.70;;;;;;4995217;28;20034;-75
2022/08/13 09:52:00;;;;;;;3.15;2.80;;;29.60;49.90;;;;;;4994871;28;20057;-75
2022/08/13 09:54:26;;;;;;;6.60;3.58;;;29.60;49.80;;;;;;4995198;28;20058;-76
2022/08/13 09:56:52;;;;;;;4.30;3.20;;;29.60;49.10;;;;;;4977093;28;20128;-75
2022/08/13 09:59:22;;;;;;;4.93;3.30;;;29.50;48.90;;;;;;4994823;28;20113;-75
2022/08/13 10:01:49;;;;;;;3.85;3.42;;;29.40;50.40;;;;;;4994361;28;20037;-75
2022/08/13 10:04:18;;;;;;;3.67;3.08;;;29.40;49.90;;;;;;4994929;28;20121;-74
2022/08/13 10:06:45;;;;;;;4.13;3.35;;;29.40;50.60;;;;;;4994230;28;20230;-75
2022/08/13 10:09:12;;;;;;;3.10;2.75;;;29.30;50.20;;;;;;4994738;28;20422;-74
2022/08/13 10:11:38;;;;;;;4.00;3.05;;;29.40;49.90;;;;;;4994022;28;20035;-78
2022/08/13 10:14:04;;;;;;;3.05;2.38;;;29.50;49.40;;;;;;4994348;28;20030;-75
2022/08/13 10:16:29;;;;;;;3.45;2.95;;;29.60;49.00;;;;;;4994295;28;20022;-75
2022/08/13 10:18:55;;;;;;;4.20;3.13;;;29.60;49.10;;;;;;4993971;28;20046;-75
2022/08/13 10:21:21;;;;;;;3.95;3.30;;;29.60;49.20;;;;;;4994773;28;20062;-74
2022/08/13 10:23:47;;;;;;;4.57;3.10;;;29.60;49.40;;;;;;4994134;28;20034;-74
2022/08/13 10:26:17;;;;;;;3.78;3.33;;;29.60;49.10;;;;;;4994567;28;20030;-76
2022/08/13 10:28:43;;;;;;;3.92;3.03;;;29.60;48.60;;;;;;4994244;28;20022;-74
2022/08/13 10:31:09;;;;;;;6.88;3.47;;;29.60;49.30;;;;;;4994044;28;20032;-75
2022/08/13 10:33:36;;;;;;;5.00;3.00;;;29.60;48.60;;;;;;4993974;28;20060;-74
2022/08/13 10:36:03;;;;;;;5.78;3.70;;;29.50;48.80;;;;;;4993677;28;20030;-74
2022/08/13 10:38:29;;;;;;;3.05;2.67;;;29.40;49.10;;;;;;4993979;28;20034;-74
2022/08/13 10:41:00;;;;;;;4.60;3.13;;;29.40;49.30;;;;;;4993707;28;20034;-75
2022/08/13 10:43:27;;;;;;;5.95;3.08;;;29.40;49.30;;;;;;4993942;28;20030;-75
2022/08/13 10:45:59;;;;;;;3.88;3.33;;;29.40;49.20;;;;;;4993678;28;20395;-75
2022/08/13 10:48:28;;;;;;;3.38;2.90;;;29.30;49.10;;;;;;4976598;28;20030;-75
2022/08/13 10:50:55;;;;;;;3.35;2.67;;;29.30;48.40;;;;;;4975796;28;20065;-75
2022/08/13 10:56:08;;;;;;;4.72;3.13;;;29.30;48.30;;;;;;4993813;28;20033;-74
2022/08/13 10:58:33;;;;;;;3.28;2.92;;;29.30;48.70;;;;;;4993605;28;20097;-75
2022/08/13 11:01:02;;;;;;;6.32;3.70;;;29.30;49.20;;;;;;4993176;28;20460;-73
2022/08/13 11:03:27;;;;;;;3.65;3.25;;;29.20;48.90;;;;;;4993851;28;20030;-74
2022/08/13 11:05:53;;;;;;;3.05;2.72;;;29.20;49.00;;;;;;4993147;28;20030;-74
2022/08/13 11:08:19;;;;;;;4.50;3.10;;;29.20;48.40;;;;;;4993142;28;20041;-74
2022/08/13 11:10:45;;;;;;;5.05;3.03;;;29.20;48.40;;;;;;4993038;28;20045;-75
2022/08/13 11:13:11;;;;;;;5.22;3.25;;;29.20;49.00;;;;;;4993239;28;20471;-74
2022/08/13 11:15:36;;;;;;;5.20;3.72;;;29.10;49.10;;;;;;4993692;28;20026;-74
2022/08/13 11:18:05;;;;;;;3.90;3.53;;;29.00;49.00;;;;;;4975043;28;20118;-74
2022/08/13 11:20:40;;;;;;;4.20;2.80;;;29.00;48.20;;;;;;4976153;28;20071;-74
2022/08/13 11:23:06;;;;;;;4.68;3.05;;;28.90;49.00;;;;;;4992648;28;20027;-74
2022/08/13 11:25:32;;;;;;;3.72;3.10;;;29.00;50.00;;;;;;4993176;28;20061;-74
2022/08/13 11:27:58;;;;;;;5.78;3.58;;;28.90;48.70;;;;;;4992982;28;20467;-75
2022/08/13 11:30:24;;;;;;;4.38;3.30;;;28.80;49.20;;;;;;5010432;28;20041;-75
2022/08/13 11:32:49;;;;;;;7.05;2.97;;;28.80;49.20;;;;;;5012290;28;20057;-74
2022/08/13 11:35:15;;;;;;;4.88;3.10;;;29.00;49.00;;;;;;5012916;28;20030;-75
2022/08/13 11:37:41;;;;;;;3.10;2.80;;;29.00;48.30;;;;;;5012788;28;20041;-74
2022/08/13 11:40:07;;;;;;;3.83;3.47;;;29.00;47.70;;;;;;5012206;28;20056;-74
2022/08/13 11:42:36;;;;;;;3.50;3.05;;;29.00;47.20;;;;;;5012508;28;20037;-75
2022/08/13 11:45:02;;;;;;;5.55;3.35;;;28.90;48.30;;;;;;5010941;28;20022;-75
2022/08/13 11:47:28;;;;;;;4.28;3.35;;;29.00;48.90;;;;;;5010461;28;20485;-75
2022/08/13 11:49:53;;;;;;;4.03;3.00;;;29.20;49.50;;;;;;5012028;28;20049;-77
2022/08/13 11:52:19;;;;;;;4.05;3.20;;;29.20;49.60;;;;;;5012428;28;20030;-76
2022/08/13 11:54:45;;;;;;;3.67;3.10;;;29.30;48.50;;;;;;5012111;28;20479;-77
2022/08/13 11:57:10;;;;;;;3.72;2.80;;;29.20;47.70;;;;;;5011790;28;20455;-75
2022/08/13 11:59:36;;;;;;;4.43;3.20;;;29.30;47.40;;;;;;5012444;28;20493;-77
2022/08/13 12:02:02;;;;;;;5.25;3.22;;;29.30;48.10;;;;;;5010911;28;20030;-77
2022/08/13 12:04:27;;;;;;;3.80;3.20;;;29.40;48.00;;;;;;5012352;28;20060;-77
2022/08/13 12:06:53;;;;;;;3.95;3.10;;;29.30;47.50;;;;;;5012129;28;20046;-75
2022/08/13 12:09:20;;;;;;;3.33;2.75;;;29.30;47.60;;;;;;5012674;28;20363;-75
2022/08/13 12:11:46;;;;;;;7.18;2.72;;;29.30;45.50;;;;;;5012301;28;20482;-74
2022/08/13 12:14:11;;;;;;;4.13;3.10;;;29.30;45.40;;;;;;5012121;28;20030;-75
2022/08/13 12:16:37;;;;;;;4.75;3.22;;;29.20;45.80;;;;;;5013086;28;20022;-76
2022/08/13 12:19:03;;;;;;;3.55;3.15;;;29.30;46.60;;;;;;5012272;28;20050;-77
2022/08/13 12:21:29;;;;;;;4.13;3.30;;;29.30;46.70;;;;;;5012121;28;20029;-77
2022/08/13 12:23:54;;;;;;;4.40;3.42;;;29.30;47.20;;;;;;5011587;28;20037;-77
2022/08/13 12:26:20;;;;;;;5.85;3.30;;;29.40;47.40;;;;;;5012340;28;20112;-76
2022/08/13 12:28:45;;;;;;;3.70;3.20;;;29.40;46.80;;;;;;5012421;28;20108;-77
2022/08/13 12:31:14;;;;;;;4.03;3.13;;;29.40;46.70;;;;;;5011600;28;20022;-76
2022/08/13 12:33:40;;;;;;;3.92;3.50;;;29.30;45.30;;;;;;5011991;28;20030;-76
2022/08/13 12:36:07;;;;;;;3.53;3.05;;;29.30;45.60;;;;;;5011660;28;20033;-75
2022/08/13 12:38:33;;;;;;;3.75;2.83;;;29.30;46.00;;;;;;5012114;28;20090;-75
2022/08/13 12:41:00;;;;;;;4.38;3.28;;;29.40;46.40;;;;;;5011800;28;20033;-76
2022/08/13 12:43:26;;;;;;;4.43;3.90;;;29.40;46.30;;;;;;5012329;28;20026;-76
2022/08/13 12:45:51;;;;;;;4.53;3.55;;;29.40;46.80;;;;;;5011680;28;20351;-76
2022/08/13 12:48:18;;;;;;;4.43;3.28;;;29.40;47.20;;;;;;5008681;28;20034;-76
2022/08/13 12:50:47;;;;;;;4.50;3.45;;;29.40;47.30;;;;;;5012286;28;20033;-76
2022/08/13 12:53:14;;;;;;;3.63;3.08;;;29.40;45.50;;;;;;5011823;28;20023;-76
2022/08/13 12:55:41;;;;;;;4.30;3.47;;;29.50;45.70;;;;;;5012002;28;20455;-76
2022/08/13 12:58:16;;;;;;;5.35;3.42;;;29.60;46.20;;;;;;5011208;28;20416;-75
2022/08/13 13:00:43;;;;;;;4.13;3.45;;;29.50;45.90;;;;;;5011869;28;20064;-75
2022/08/13 13:03:09;;;;;;;4.65;3.40;;;29.40;46.30;;;;;;5011605;28;20037;-74
2022/08/13 13:05:35;;;;;;;7.65;3.50;;;29.40;45.50;;;;;;5011821;28;20406;-75
2022/08/13 13:08:01;;;;;;;5.32;3.50;;;29.50;45.90;;;;;;5011436;28;20045;-76
2022/08/13 13:10:26;;;;;;;4.53;3.65;;;29.50;46.60;;;;;;5012335;28;20037;-75
2022/08/13 13:12:52;;;;;;;5.32;3.55;;;29.50;46.60;;;;;;5011413;28;20033;-76
2022/08/13 13:15:18;;;;;;;5.35;3.50;;;29.40;46.50;;;;;;5015256;28;20026;-75